Time;durP1;ratioP1;P1;durP2;ratioP2;P2;SDS_P1;SDS_P2;PMS_P1;PMS_P2;Temp;Humidity;BMP_temperature;BMP_pressure;BME280_temperature;BME280_humidity;BME280_pressure;Samples;Min_cycle;Max_cycle;Signal;HPM_P1;HPM_P2
2024/02/18 00:01:18;;;;;;;8.50;5.83;;;10.70;99.90;;;;;;5031814;28;20209;-59
2024/02/18 00:03:45;;;;;;;8.13;6.10;;;10.60;99.90;;;;;;5040983;28;20201;-59
2024/02/18 00:06:12;;;;;;;11.67;6.43;;;10.70;99.90;;;;;;5043731;28;20206;-59
2024/02/18 00:08:38;;;;;;;7.73;6.03;;;10.70;99.90;;;;;;5043411;28;20201;-57
2024/02/18 00:11:07;;;;;;;7.67;6.13;;;10.80;99.90;;;;;;5031923;28;20209;-57
2024/02/18 00:13:36;;;;;;;8.13;6.07;;;10.80;99.90;;;;;;5039992;28;20249;-58
2024/02/18 00:16:03;;;;;;;7.53;5.53;;;10.90;99.90;;;;;;5031770;28;20198;-58
2024/02/18 00:18:30;;;;;;;8.30;5.63;;;10.90;99.90;;;;;;5031732;28;20264;-57
2024/02/18 00:20:56;;;;;;;8.60;6.63;;;10.90;99.90;;;;;;5039707;28;20279;-58
2024/02/18 00:23:23;;;;;;;9.27;6.43;;;10.70;99.90;;;;;;5031648;28;20672;-58
2024/02/18 00:25:49;;;;;;;8.30;6.57;;;10.60;99.90;;;;;;5041494;28;20256;-58
2024/02/18 00:28:17;;;;;;;7.50;6.27;;;10.70;99.90;;;;;;5043491;28;20302;-58
2024/02/18 00:30:49;;;;;;;7.43;5.77;;;10.80;99.90;;;;;;5042272;28;20210;-58
2024/02/18 00:33:15;;;;;;;9.17;6.43;;;10.70;99.90;;;;;;5031350;28;20672;-59
2024/02/18 00:35:42;;;;;;;9.20;6.37;;;10.60;99.90;;;;;;5039912;28;20222;-59
2024/02/18 00:38:09;;;;;;;8.57;6.13;;;10.50;99.90;;;;;;5043421;28;20201;-59
2024/02/18 00:40:35;;;;;;;9.63;6.33;;;10.50;99.90;;;;;;5043204;28;20205;-59
2024/02/18 00:43:02;;;;;;;6.63;5.53;;;10.40;99.90;;;;;;5039977;28;20206;-59
2024/02/18 00:45:30;;;;;;;8.50;5.90;;;10.30;99.90;;;;;;5039671;28;20214;-59
2024/02/18 00:47:57;;;;;;;8.20;6.00;;;10.30;99.90;;;;;;5031398;28;20213;-59
2024/02/18 00:50:23;;;;;;;8.97;6.47;;;10.40;99.90;;;;;;5039422;28;20214;-59
2024/02/18 00:52:50;;;;;;;9.60;6.57;;;10.40;99.90;;;;;;5031510;28;20202;-59
2024/02/18 00:55:17;;;;;;;8.87;6.40;;;10.40;99.90;;;;;;5039437;28;20226;-59
2024/02/18 00:57:43;;;;;;;10.50;6.20;;;10.50;99.90;;;;;;5040082;28;20202;-59
2024/02/18 01:00:11;;;;;;;8.03;6.50;;;10.50;99.90;;;;;;5042895;28;20197;-59
2024/02/18 01:02:39;;;;;;;8.17;6.40;;;10.50;99.90;;;;;;5043359;28;20209;-58
2024/02/18 01:05:06;;;;;;;13.53;6.73;;;10.60;99.90;;;;;;5031416;28;20214;-59
2024/02/18 01:07:33;;;;;;;11.07;6.93;;;10.50;99.90;;;;;;5039434;28;20664;-59
2024/02/18 01:10:00;;;;;;;8.47;6.60;;;10.50;99.90;;;;;;5032026;28;20210;-59
2024/02/18 01:12:26;;;;;;;8.27;5.93;;;10.50;99.90;;;;;;5043324;28;20206;-59
2024/02/18 01:14:53;;;;;;;12.07;7.13;;;10.40;99.90;;;;;;5034772;28;20229;-59
2024/02/18 01:17:20;;;;;;;8.97;6.10;;;10.40;99.90;;;;;;5043095;28;20707;-59
2024/02/18 01:19:50;;;;;;;9.37;6.33;;;10.40;99.90;;;;;;5034741;28;20333;-59
2024/02/18 01:22:17;;;;;;;7.00;6.10;;;10.40;99.90;;;;;;5043380;28;20237;-59
2024/02/18 01:24:44;;;;;;;7.97;6.33;;;10.40;99.90;;;;;;5034546;28;20221;-59
2024/02/18 01:27:10;;;;;;;5.60;4.90;;;10.50;99.90;;;;;;5043163;28;20210;-59
2024/02/18 01:29:38;;;;;;;7.03;5.67;;;10.50;99.90;;;;;;5034517;28;20205;-59
2024/02/18 01:32:06;;;;;;;6.83;5.70;;;10.50;99.90;;;;;;5046333;28;20577;-59
2024/02/18 01:34:33;;;;;;;8.77;5.33;;;10.50;99.90;;;;;;5046407;28;20271;-59
2024/02/18 01:37:01;;;;;;;8.50;5.23;;;10.40;99.90;;;;;;5043591;28;20699;-59
2024/02/18 01:39:27;;;;;;;7.57;5.63;;;10.30;99.90;;;;;;5034689;28;20257;-59
2024/02/18 01:41:55;;;;;;;9.03;5.53;;;10.30;99.90;;;;;;5044160;28;20210;-59
2024/02/18 01:44:21;;;;;;;5.80;5.20;;;10.20;99.90;;;;;;5045944;28;20222;-60
2024/02/18 01:46:48;;;;;;;6.40;5.43;;;10.20;99.90;;;;;;5045265;28;20209;-59
2024/02/18 01:49:15;;;;;;;6.87;5.37;;;10.10;99.90;;;;;;5034727;28;20253;-59
2024/02/18 01:51:42;;;;;;;7.93;5.23;;;10.10;99.90;;;;;;5042400;28;20229;-59
2024/02/18 01:54:10;;;;;;;6.10;5.43;;;10.20;99.90;;;;;;5045819;28;20271;-59
2024/02/18 01:56:38;;;;;;;6.20;5.40;;;10.30;99.90;;;;;;5045977;28;20637;-59
2024/02/18 01:59:05;;;;;;;6.93;4.90;;;10.30;99.90;;;;;;5042396;28;20202;-59
2024/02/18 02:01:33;;;;;;;7.77;5.03;;;10.30;99.90;;;;;;5034093;28;20229;-60
2024/02/18 02:04:01;;;;;;;8.93;5.17;;;10.30;99.90;;;;;;5044924;28;20226;-58
2024/02/18 02:06:30;;;;;;;7.27;5.00;;;10.30;99.90;;;;;;5045844;28;20209;-58
2024/02/18 02:08:57;;;;;;;6.33;5.67;;;10.30;99.90;;;;;;5044171;28;20206;-58
2024/02/18 02:11:26;;;;;;;6.87;5.27;;;10.30;99.90;;;;;;5034075;28;20198;-58
2024/02/18 02:13:52;;;;;;;6.17;5.13;;;10.20;99.90;;;;;;5043679;28;20238;-59
2024/02/18 02:16:19;;;;;;;5.13;4.63;;;10.20;99.90;;;;;;5045829;28;20275;-58
2024/02/18 02:18:46;;;;;;;8.93;5.80;;;10.10;99.90;;;;;;5044845;28;20205;-59
2024/02/18 02:21:12;;;;;;;7.40;5.20;;;10.10;99.90;;;;;;5033609;28;20333;-58
2024/02/18 02:23:39;;;;;;;6.63;4.70;;;10.10;99.90;;;;;;5042035;28;20202;-59
2024/02/18 02:26:07;;;;;;;6.27;5.20;;;10.10;99.90;;;;;;5033683;28;20198;-59
2024/02/18 02:28:41;;;;;;;5.70;4.80;;;10.10;99.90;;;;;;5041103;28;20205;-59
2024/02/18 02:31:09;;;;;;;7.50;5.00;;;10.00;99.90;;;;;;5041863;28;20210;-58
2024/02/18 02:33:36;;;;;;;7.17;5.10;;;9.90;99.90;;;;;;5033688;28;20206;-59
2024/02/18 02:36:02;;;;;;;8.50;5.27;;;9.90;99.90;;;;;;5042139;28;20226;-59
2024/02/18 02:38:29;;;;;;;7.00;5.30;;;9.90;99.90;;;;;;5041676;28;20607;-58
2024/02/18 02:40:56;;;;;;;6.33;5.50;;;9.80;99.90;;;;;;5033032;28;20709;-58
2024/02/18 02:43:23;;;;;;;8.07;5.47;;;9.80;99.90;;;;;;5041620;28;20688;-58
2024/02/18 02:45:50;;;;;;;8.63;5.33;;;9.80;99.90;;;;;;5033286;28;20222;-59
2024/02/18 02:48:18;;;;;;;6.27;4.50;;;9.80;99.90;;;;;;5041662;28;20198;-59
2024/02/18 02:50:44;;;;;;;7.33;5.30;;;9.90;99.90;;;;;;5032925;28;20206;-58
2024/02/18 02:53:12;;;;;;;8.53;5.63;;;9.90;99.90;;;;;;5041421;28;20202;-59
2024/02/18 02:55:38;;;;;;;9.23;5.57;;;9.80;99.90;;;;;;5032929;28;20225;-58
2024/02/18 02:58:05;;;;;;;6.40;5.17;;;9.80;99.90;;;;;;5044177;28;20675;-59
2024/02/18 03:00:32;;;;;;;5.07;4.40;;;9.70;99.90;;;;;;5044634;28;20198;-59
2024/02/18 03:02:59;;;;;;;7.93;5.93;;;9.70;99.90;;;;;;5042431;28;20217;-59
2024/02/18 03:05:26;;;;;;;8.33;5.87;;;9.70;99.90;;;;;;5032958;28;20226;-59
2024/02/18 03:07:53;;;;;;;8.63;6.60;;;9.60;99.90;;;;;;5042376;28;20206;-58
2024/02/18 03:10:20;;;;;;;8.40;6.00;;;9.50;99.90;;;;;;5044605;28;20564;-58
2024/02/18 03:12:46;;;;;;;7.73;5.87;;;9.50;99.90;;;;;;5044193;28;20206;-58
2024/02/18 03:15:13;;;;;;;8.47;5.37;;;9.40;99.90;;;;;;5032861;28;20226;-58
2024/02/18 03:17:40;;;;;;;8.00;5.60;;;9.40;99.90;;;;;;5041125;28;20209;-58
2024/02/18 03:20:09;;;;;;;7.60;6.40;;;9.40;99.90;;;;;;5032370;28;20203;-58
2024/02/18 03:22:38;;;;;;;7.60;5.50;;;9.30;99.90;;;;;;5032987;28;20212;-59
2024/02/18 03:25:05;;;;;;;7.80;5.30;;;9.30;99.90;;;;;;5049209;28;20637;-59
2024/02/18 03:27:32;;;;;;;6.63;5.10;;;9.20;99.90;;;;;;5032766;28;20202;-58
2024/02/18 03:30:00;;;;;;;6.40;5.30;;;9.10;99.90;;;;;;5042482;28;20207;-58
2024/02/18 03:32:26;;;;;;;7.50;5.43;;;9.00;99.90;;;;;;5043549;28;20754;-58
2024/02/18 03:34:53;;;;;;;10.17;5.53;;;8.90;99.90;;;;;;5042668;28;20601;-60
2024/02/18 03:37:20;;;;;;;6.83;5.53;;;8.90;99.90;;;;;;5032390;28;20668;-59
2024/02/18 03:39:48;;;;;;;8.00;5.13;;;8.80;99.90;;;;;;5040711;28;20202;-60
2024/02/18 03:42:14;;;;;;;6.50;5.50;;;8.80;99.90;;;;;;5044174;28;20206;-60
2024/02/18 03:44:41;;;;;;;7.50;5.50;;;8.80;99.90;;;;;;5043907;28;20214;-60
2024/02/18 03:47:08;;;;;;;7.00;5.43;;;8.80;99.90;;;;;;5040556;28;20202;-60
2024/02/18 03:49:34;;;;;;;7.87;5.30;;;8.70;99.90;;;;;;5031936;28;20208;-59
2024/02/18 03:52:01;;;;;;;7.77;5.27;;;8.60;99.90;;;;;;5042624;28;20260;-60
2024/02/18 03:54:29;;;;;;;6.60;5.53;;;8.60;99.90;;;;;;5067030;22;20229;-57
2024/02/18 03:56:57;;;;;;;6.03;5.13;;;8.60;99.90;;;;;;5061887;28;20212;-57
2024/02/18 03:59:24;;;;;;;6.50;5.73;;;8.50;99.90;;;;;;5063968;28;20209;-58
2024/02/18 04:01:50;;;;;;;6.20;5.37;;;8.40;99.90;;;;;;5062512;28;20213;-57
2024/02/18 04:04:17;;;;;;;7.17;5.77;;;8.30;99.90;;;;;;5060113;28;20206;-58
2024/02/18 04:06:45;;;;;;;8.33;6.27;;;8.20;99.90;;;;;;5060363;28;20208;-58
2024/02/18 04:09:12;;;;;;;9.90;6.47;;;8.20;99.90;;;;;;5063735;28;20196;-57
2024/02/18 04:11:39;;;;;;;7.03;6.33;;;8.10;99.90;;;;;;5063321;28;20205;-57
2024/02/18 04:14:07;;;;;;;10.87;6.33;;;8.10;99.90;;;;;;5060534;28;20701;-57
2024/02/18 04:16:34;;;;;;;6.90;6.20;;;8.00;99.90;;;;;;5059943;28;20221;-58
2024/02/18 04:19:00;;;;;;;7.87;6.57;;;8.00;99.90;;;;;;5062132;28;20209;-57
2024/02/18 04:21:27;;;;;;;10.27;7.30;;;8.00;99.90;;;;;;5063187;28;20201;-57
2024/02/18 04:23:53;;;;;;;7.70;6.60;;;7.90;99.90;;;;;;5062281;28;20296;-57
2024/02/18 04:26:20;;;;;;;10.70;7.40;;;7.90;99.90;;;;;;5059930;28;20252;-58
2024/02/18 04:28:47;;;;;;;11.87;6.87;;;7.90;99.90;;;;;;5059810;28;20208;-57
2024/02/18 04:31:15;;;;;;;10.43;7.57;;;7.90;99.90;;;;;;5062984;28;20213;-57
2024/02/18 04:33:41;;;;;;;10.03;6.87;;;7.80;99.90;;;;;;5063445;28;20278;-57
2024/02/18 04:36:09;;;;;;;7.97;6.60;;;7.80;99.90;;;;;;5059912;28;20328;-58
2024/02/18 04:38:35;;;;;;;14.13;7.70;;;7.80;99.90;;;;;;5059766;28;20663;-58
2024/02/18 04:41:02;;;;;;;12.83;7.50;;;7.80;99.90;;;;;;5061509;28;20675;-58
2024/02/18 04:43:28;;;;;;;9.93;7.50;;;7.70;99.90;;;;;;5063022;28;20258;-57
2024/02/18 04:45:55;;;;;;;8.67;7.47;;;7.60;99.90;;;;;;5066041;28;20306;-57
2024/02/18 04:48:23;;;;;;;12.20;7.10;;;7.50;99.90;;;;;;5063720;28;20202;-57
2024/02/18 04:50:50;;;;;;;7.80;6.97;;;7.50;99.90;;;;;;5063936;28;20741;-57
2024/02/18 04:53:17;;;;;;;7.63;6.83;;;7.30;99.90;;;;;;5067274;28;20311;-57
2024/02/18 04:55:43;;;;;;;8.20;6.90;;;7.30;99.90;;;;;;5066935;28;20221;-57
2024/02/18 04:58:10;;;;;;;9.77;7.07;;;7.30;99.90;;;;;;5063595;28;20247;-57
2024/02/18 05:00:37;;;;;;;11.13;7.13;;;7.30;99.90;;;;;;5063565;28;20284;-58
2024/02/18 05:03:04;;;;;;;9.30;7.00;;;7.30;99.90;;;;;;5065889;28;20210;-57
2024/02/18 05:05:32;;;;;;;9.10;6.83;;;7.30;99.90;;;;;;5067053;28;20295;-58
2024/02/18 05:07:58;;;;;;;7.37;6.57;;;7.30;99.90;;;;;;5065106;28;20279;-58
2024/02/18 05:10:25;;;;;;;9.73;6.60;;;7.30;99.90;;;;;;5063202;28;20614;-58
2024/02/18 05:12:52;;;;;;;10.00;7.00;;;7.30;99.90;;;;;;5063855;28;20202;-57
2024/02/18 05:15:19;;;;;;;9.03;7.03;;;7.20;99.90;;;;;;5066648;28;20225;-57
2024/02/18 05:17:45;;;;;;;8.57;6.37;;;7.10;99.90;;;;;;5066789;28;20447;-58
2024/02/18 05:20:14;;;;;;;9.90;6.80;;;7.10;99.90;;;;;;5062898;28;20202;-57
2024/02/18 05:22:42;;;;;;;8.47;6.83;;;7.00;99.90;;;;;;5063163;28;20213;-57
2024/02/18 05:25:09;;;;;;;8.90;6.67;;;7.10;99.90;;;;;;5065884;28;20221;-57
2024/02/18 05:27:36;;;;;;;8.70;6.60;;;7.00;99.90;;;;;;5066649;28;20299;-57
2024/02/18 05:30:03;;;;;;;8.63;6.90;;;7.00;99.90;;;;;;5064131;28;20258;-58
2024/02/18 05:32:30;;;;;;;9.30;7.70;;;7.00;99.90;;;;;;5063065;28;20224;-57
2024/02/18 05:34:56;;;;;;;10.37;7.30;;;7.00;99.90;;;;;;5063997;28;20225;-57
2024/02/18 05:37:23;;;;;;;8.83;7.27;;;7.00;99.90;;;;;;5066441;28;20628;-57
2024/02/18 05:39:51;;;;;;;8.90;8.00;;;7.00;99.90;;;;;;5065496;28;20594;-57
2024/02/18 05:42:18;;;;;;;9.63;7.57;;;6.90;99.90;;;;;;5062830;28;20202;-57
2024/02/18 05:44:44;;;;;;;9.97;7.33;;;7.00;99.90;;;;;;5062826;28;20401;-57
2024/02/18 05:47:11;;;;;;;13.10;8.23;;;7.00;99.90;;;;;;5065944;28;20251;-57
2024/02/18 05:49:37;;;;;;;12.63;7.17;;;7.00;99.90;;;;;;5066016;28;20207;-57
2024/02/18 05:52:05;;;;;;;8.40;7.60;;;7.00;99.90;;;;;;5063725;28;20205;-57
2024/02/18 05:54:32;;;;;;;9.43;7.10;;;7.10;99.90;;;;;;5062276;28;20238;-57
2024/02/18 05:57:00;;;;;;;8.30;7.40;;;7.10;99.90;;;;;;5063476;28;20229;-56
2024/02/18 05:59:26;;;;;;;8.97;7.60;;;7.10;99.90;;;;;;5066097;28;20197;-56
2024/02/18 06:01:53;;;;;;;8.90;6.83;;;7.10;99.90;;;;;;5065125;28;20204;-57
2024/02/18 06:04:19;;;;;;;7.57;6.77;;;7.20;99.90;;;;;;5062343;28;20560;-57
2024/02/18 06:06:46;;;;;;;8.20;7.03;;;7.10;99.90;;;;;;5062374;28;20655;-57
2024/02/18 06:09:13;;;;;;;8.00;7.20;;;7.10;99.90;;;;;;5065740;28;20201;-57
2024/02/18 06:11:39;;;;;;;8.73;6.97;;;7.10;99.90;;;;;;5065546;28;20197;-57
2024/02/18 06:14:07;;;;;;;8.93;7.53;;;7.10;99.90;;;;;;5063551;28;20213;-57
2024/02/18 06:16:34;;;;;;;9.80;7.00;;;7.20;99.90;;;;;;5062455;28;20628;-57
2024/02/18 06:19:01;;;;;;;10.10;6.87;;;7.10;99.90;;;;;;5063439;28;20639;-57
2024/02/18 06:21:28;;;;;;;12.17;7.97;;;7.00;99.90;;;;;;5065147;28;20215;-57
2024/02/18 06:23:56;;;;;;;9.03;7.30;;;6.80;99.90;;;;;;5064833;28;20213;-57
2024/02/18 06:26:23;;;;;;;8.30;7.40;;;6.70;99.90;;;;;;5062119;28;20214;-57
2024/02/18 06:28:50;;;;;;;8.07;6.87;;;6.60;99.90;;;;;;5062081;28;20213;-57
2024/02/18 06:31:18;;;;;;;11.40;8.30;;;6.50;99.90;;;;;;5065067;28;20216;-57
2024/02/18 06:33:45;;;;;;;8.37;7.23;;;6.50;99.90;;;;;;5065342;28;20713;-58
2024/02/18 06:36:12;;;;;;;9.60;7.67;;;6.50;99.90;;;;;;5061684;28;20221;-57
2024/02/18 06:38:41;;;;;;;10.30;7.60;;;6.50;99.90;;;;;;5061876;28;20206;-57
2024/02/18 06:41:08;;;;;;;10.37;8.20;;;6.60;99.90;;;;;;5063949;28;20651;-58
2024/02/18 06:43:35;;;;;;;14.43;7.77;;;6.60;99.90;;;;;;5065168;28;20605;-57
2024/02/18 06:46:01;;;;;;;10.67;8.87;;;6.70;99.90;;;;;;5063324;28;20229;-57
2024/02/18 06:48:29;;;;;;;9.87;8.20;;;6.80;99.90;;;;;;5061531;28;20209;-57
2024/02/18 06:50:56;;;;;;;12.30;9.17;;;6.90;99.90;;;;;;5062289;28;20259;-58
2024/02/18 06:53:23;;;;;;;12.67;8.63;;;7.20;99.90;;;;;;5065057;28;20499;-57
2024/02/18 06:55:50;;;;;;;11.50;8.77;;;7.30;99.90;;;;;;5064755;28;20263;-57
2024/02/18 06:58:17;;;;;;;10.63;7.90;;;7.60;99.90;;;;;;5061738;28;20201;-57
2024/02/18 07:00:44;;;;;;;11.23;7.70;;;7.80;99.90;;;;;;5061140;28;20198;-57
2024/02/18 07:03:10;;;;;;;9.97;8.30;;;8.00;99.90;;;;;;5063788;28;20209;-57
2024/02/18 07:05:38;;;;;;;12.07;8.93;;;8.20;99.90;;;;;;5064877;28;20213;-57
2024/02/18 07:08:06;;;;;;;12.13;8.17;;;8.40;99.90;;;;;;5061975;28;20209;-57
2024/02/18 07:10:33;;;;;;;10.07;7.53;;;8.70;99.90;;;;;;5061103;28;20251;-57
2024/02/18 07:13:00;;;;;;;10.43;8.67;;;9.00;99.90;;;;;;5062272;28;20695;-55
2024/02/18 07:15:26;;;;;;;12.70;7.87;;;9.30;99.90;;;;;;5064297;28;20278;-57
2024/02/18 07:17:53;;;;;;;8.37;6.67;;;9.60;99.90;;;;;;5063962;28;20201;-57
2024/02/18 07:20:20;;;;;;;12.17;9.67;;;9.80;99.90;;;;;;5060808;28;20481;-57
2024/02/18 07:22:47;;;;;;;7.90;6.70;;;10.00;99.90;;;;;;5060941;28;20267;-57
2024/02/18 07:25:14;;;;;;;9.70;6.93;;;10.10;99.90;;;;;;5063825;28;20294;-57
2024/02/18 07:27:41;;;;;;;8.60;6.07;;;10.10;99.90;;;;;;5064135;28;20266;-57
2024/02/18 07:30:09;;;;;;;9.67;7.13;;;10.10;99.90;;;;;;5061636;28;20205;-57
2024/02/18 07:32:36;;;;;;;9.17;6.30;;;10.10;99.90;;;;;;5060761;28;20208;-57
2024/02/18 07:35:03;;;;;;;8.47;7.50;;;10.10;99.90;;;;;;5062328;28;20225;-56
2024/02/18 07:37:30;;;;;;;8.60;7.10;;;10.10;99.90;;;;;;5064102;28;20216;-56
2024/02/18 07:39:58;;;;;;;8.97;6.07;;;10.10;99.90;;;;;;5062782;28;20677;-57
2024/02/18 07:42:25;;;;;;;9.07;6.67;;;10.10;99.90;;;;;;5060515;28;20209;-57
2024/02/18 07:44:52;;;;;;;7.97;6.63;;;10.00;99.90;;;;;;5060168;28;20228;-57
2024/02/18 07:47:19;;;;;;;9.20;7.00;;;10.10;99.90;;;;;;5063725;28;20682;-58
2024/02/18 07:49:46;;;;;;;7.27;6.23;;;10.10;99.90;;;;;;5063458;28;20606;-57
2024/02/18 07:52:12;;;;;;;11.17;7.10;;;10.10;99.90;;;;;;5060890;28;20275;-57
2024/02/18 07:54:44;;;;;;;9.13;6.87;;;10.10;99.90;;;;;;5060256;28;20237;-57
2024/02/18 07:57:12;;;;;;;8.67;7.13;;;10.20;99.90;;;;;;5062709;28;20657;-56
2024/02/18 07:59:40;;;;;;;8.40;6.87;;;10.30;99.90;;;;;;5063771;28;20207;-57
2024/02/18 08:02:07;;;;;;;12.30;8.63;;;10.60;99.90;;;;;;5061659;28;20217;-57
2024/02/18 08:04:33;;;;;;;8.70;7.27;;;10.80;99.90;;;;;;5060210;28;20738;-56
2024/02/18 08:07:00;;;;;;;9.37;6.73;;;11.00;99.90;;;;;;5061070;28;20201;-57
2024/02/18 08:09:27;;;;;;;8.40;7.03;;;11.30;99.90;;;;;;5063531;28;20247;-58
2024/02/18 08:11:53;;;;;;;10.83;7.47;;;11.40;99.90;;;;;;5062760;28;20266;-57
2024/02/18 08:14:21;;;;;;;8.07;7.00;;;11.60;99.90;;;;;;5060127;28;20259;-57
2024/02/18 08:16:48;;;;;;;9.10;7.70;;;11.90;99.90;;;;;;5059932;28;20251;-58
2024/02/18 08:19:14;;;;;;;8.60;7.70;;;12.10;99.90;;;;;;5062553;28;20622;-57
2024/02/18 08:21:41;;;;;;;8.87;7.73;;;12.30;99.90;;;;;;5063211;28;20212;-57
2024/02/18 08:24:08;;;;;;;9.40;7.87;;;12.40;99.90;;;;;;5061124;28;20629;-58
2024/02/18 08:26:35;;;;;;;9.60;6.97;;;12.50;99.90;;;;;;5059807;28;20439;-57
2024/02/18 08:29:01;;;;;;;8.43;6.90;;;12.60;99.90;;;;;;5061121;28;20202;-57
2024/02/18 08:31:29;;;;;;;8.60;7.20;;;12.60;99.90;;;;;;5062957;28;20205;-57
2024/02/18 08:33:56;;;;;;;9.00;7.67;;;12.50;99.90;;;;;;5062634;28;20262;-57
2024/02/18 08:36:23;;;;;;;8.73;6.80;;;12.30;99.90;;;;;;5059459;28;20225;-57
2024/02/18 08:38:50;;;;;;;8.67;7.10;;;12.00;99.90;;;;;;5059605;28;20267;-56
2024/02/18 08:41:17;;;;;;;9.47;7.30;;;11.90;99.90;;;;;;5062699;28;20201;-57
2024/02/18 08:43:45;;;;;;;8.57;7.77;;;11.90;99.90;;;;;;5063045;28;20201;-57
2024/02/18 08:46:12;;;;;;;8.57;7.27;;;11.90;99.90;;;;;;5059969;28;20730;-57
2024/02/18 08:48:40;;;;;;;9.47;7.20;;;11.90;99.90;;;;;;5059471;28;20290;-57
2024/02/18 08:51:08;;;;;;;8.60;7.57;;;12.00;99.90;;;;;;5060963;28;20205;-57
2024/02/18 08:53:36;;;;;;;8.57;6.80;;;11.90;99.90;;;;;;5062827;28;20295;-57
2024/02/18 08:56:03;;;;;;;7.87;7.07;;;11.90;99.90;;;;;;5061280;28;20665;-58
2024/02/18 08:58:31;;;;;;;7.50;6.80;;;12.00;99.90;;;;;;5059759;28;20205;-58
2024/02/18 09:00:58;;;;;;;9.20;6.93;;;12.20;99.90;;;;;;5059883;28;20244;-55
2024/02/18 09:03:25;;;;;;;8.43;7.47;;;12.40;99.90;;;;;;5062955;28;20201;-55
2024/02/18 09:05:53;;;;;;;9.33;6.83;;;12.50;99.90;;;;;;5063680;28;20228;-56
2024/02/18 09:08:21;;;;;;;8.83;6.83;;;12.60;99.90;;;;;;5063427;28;20255;-56
2024/02/18 09:10:47;;;;;;;7.90;6.97;;;12.70;99.90;;;;;;5062990;28;20299;-56
2024/02/18 09:13:15;;;;;;;7.53;6.70;;;12.90;99.90;;;;;;5060209;28;20209;-56
2024/02/18 09:15:42;;;;;;;7.40;6.20;;;13.00;99.90;;;;;;5059258;28;20764;-56
2024/02/18 09:18:08;;;;;;;7.30;6.27;;;13.10;99.90;;;;;;5061085;28;20718;-57
2024/02/18 09:20:36;;;;;;;6.80;5.90;;;13.20;99.90;;;;;;5062760;28;20586;-56
2024/02/18 09:23:04;;;;;;;9.60;6.60;;;13.30;99.90;;;;;;5061554;28;20204;-57
2024/02/18 09:25:31;;;;;;;6.80;6.20;;;13.40;99.90;;;;;;5059371;28;20221;-57
2024/02/18 09:27:57;;;;;;;8.27;6.40;;;13.50;99.90;;;;;;5059840;28;20205;-56
2024/02/18 09:30:24;;;;;;;8.07;6.37;;;13.70;99.90;;;;;;5062711;28;20197;-56
2024/02/18 09:32:51;;;;;;;8.00;6.63;;;13.80;99.90;;;;;;5066469;28;20311;-55
2024/02/18 09:35:19;;;;;;;7.20;6.40;;;14.00;99.90;;;;;;5063006;28;20229;-55
2024/02/18 09:37:45;;;;;;;9.03;6.43;;;14.20;99.90;;;;;;5063221;28;20226;-55
2024/02/18 09:40:14;;;;;;;9.03;6.93;;;14.30;99.90;;;;;;5064937;28;20702;-56
2024/02/18 09:42:42;;;;;;;7.77;6.60;;;14.40;99.90;;;;;;5066422;28;20267;-56
2024/02/18 09:45:13;;;;;;;8.83;6.33;;;14.60;99.90;;;;;;5064301;28;20306;-56
2024/02/18 09:47:41;;;;;;;8.57;6.63;;;14.80;99.90;;;;;;5062756;28;20292;-55
2024/02/18 09:50:10;;;;;;;9.50;7.23;;;15.00;99.90;;;;;;5063831;28;20212;-56
2024/02/18 09:52:40;;;;;;;9.23;6.47;;;15.20;99.90;;;;;;5066309;28;20232;-56
2024/02/18 09:55:08;;;;;;;7.00;6.30;;;15.40;99.90;;;;;;5078556;22;20352;-56
2024/02/18 09:57:37;;;;;;;7.25;5.82;;;15.60;99.90;;;;;;5045893;28;20222;-57
2024/02/18 10:00:04;;;;;;;7.00;5.97;;;15.60;99.90;;;;;;5044425;28;20209;-57
2024/02/18 10:02:34;;;;;;;7.53;6.07;;;15.40;99.90;;;;;;5042289;28;20202;-56
2024/02/18 10:05:00;;;;;;;5.87;5.27;;;15.30;99.90;;;;;;5033821;28;20737;-58
2024/02/18 10:07:27;;;;;;;8.32;5.68;;;15.50;99.90;;;;;;5042522;28;20198;-57
2024/02/18 10:09:54;;;;;;;6.70;6.00;;;15.70;99.90;;;;;;5033825;28;20552;-58
2024/02/18 10:12:22;;;;;;;8.88;5.93;;;15.70;99.90;;;;;;5045685;28;20198;-57
2024/02/18 10:14:58;;;;;;;6.03;5.07;;;15.70;99.90;;;;;;5045570;28;20256;-56
2024/02/18 10:17:25;;;;;;;6.88;5.90;;;16.00;99.90;;;;;;5034638;28;20245;-57
2024/02/18 10:19:52;;;;;;;7.88;5.93;;;16.50;99.90;;;;;;5033784;28;20317;-56
2024/02/18 10:22:22;;;;;;;8.13;5.88;;;16.60;99.90;;;;;;5045032;28;20206;-57
2024/02/18 10:24:48;;;;;;;6.53;5.63;;;16.50;99.90;;;;;;5045396;28;20221;-57
2024/02/18 10:27:16;;;;;;;6.57;5.63;;;16.20;99.90;;;;;;5042759;28;20201;-56
2024/02/18 10:29:43;;;;;;;6.80;5.35;;;16.20;99.90;;;;;;5033415;28;20619;-57
2024/02/18 10:32:11;;;;;;;7.43;5.15;;;16.40;99.90;;;;;;5043886;28;20207;-56
2024/02/18 10:34:38;;;;;;;8.27;4.72;;;16.50;99.90;;;;;;5045126;28;20621;-58
2024/02/18 10:37:09;;;;;;;6.57;5.82;;;16.60;99.90;;;;;;5044014;28;20320;-56
2024/02/18 10:39:39;;;;;;;6.78;5.00;;;16.80;99.90;;;;;;5041606;28;20207;-60
2024/02/18 10:42:10;;;;;;;7.25;4.50;;;17.00;99.90;;;;;;5033417;28;20210;-57
2024/02/18 10:44:40;;;;;;;4.45;4.00;;;17.30;99.90;;;;;;5041573;28;20289;-57
2024/02/18 10:47:11;;;;;;;6.35;4.32;;;17.60;99.90;;;;;;5033510;28;20206;-57
2024/02/18 10:49:40;;;;;;;7.85;4.55;;;17.80;99.90;;;;;;5041334;28;20207;-57
2024/02/18 10:52:13;;;;;;;7.70;5.25;;;18.00;99.90;;;;;;5042735;28;20566;-57
2024/02/18 10:54:46;;;;;;;6.78;4.85;;;18.20;99.90;;;;;;5045002;28;20210;-57
2024/02/18 10:57:14;;;;;;;5.20;3.63;;;18.60;99.90;;;;;;5042915;28;20225;-59
2024/02/18 10:59:50;;;;;;;4.90;4.20;;;18.50;99.90;;;;;;5032930;28;20210;-60
2024/02/18 11:02:23;;;;;;;6.80;4.10;;;18.40;99.90;;;;;;5044513;28;20206;-58
2024/02/18 11:04:51;;;;;;;4.32;3.33;;;18.60;99.90;;;;;;5044740;28;20230;-58
2024/02/18 11:07:18;;;;;;;4.15;3.50;;;18.80;99.90;;;;;;5042245;28;20578;-58
2024/02/18 11:09:46;;;;;;;4.68;3.30;;;18.80;99.90;;;;;;5032900;28;20202;-57
2024/02/18 11:12:16;;;;;;;4.65;3.38;;;18.70;99.90;;;;;;5044056;28;20297;-58
2024/02/18 11:14:44;;;;;;;3.75;3.33;;;18.80;99.90;;;;;;5046586;28;20298;-58
2024/02/18 11:17:11;;;;;;;4.72;3.20;;;18.90;99.90;;;;;;5044039;28;20248;-58
2024/02/18 11:19:40;;;;;;;3.78;3.38;;;19.00;99.90;;;;;;5033913;28;20285;-58
2024/02/18 11:22:07;;;;;;;4.90;3.35;;;18.90;99.90;;;;;;5033273;28;20206;-59
2024/02/18 11:24:34;;;;;;;6.07;3.70;;;19.00;99.90;;;;;;5041134;28;20683;-59
2024/02/18 11:27:01;;;;;;;5.22;2.92;;;19.00;99.90;;;;;;5032902;28;20206;-58
2024/02/18 11:29:28;;;;;;;3.28;2.58;;;19.00;99.90;;;;;;5041112;28;20264;-59
2024/02/18 11:31:55;;;;;;;3.78;2.75;;;18.80;99.90;;;;;;5032281;28;20261;-58
2024/02/18 11:34:22;;;;;;;3.53;2.83;;;18.30;99.90;;;;;;5044628;28;20201;-58
2024/02/18 11:36:50;;;;;;;4.55;3.17;;;17.90;99.90;;;;;;5044337;28;20201;-59
2024/02/18 11:39:17;;;;;;;4.55;3.63;;;17.70;99.90;;;;;;5041667;28;20209;-58
2024/02/18 11:41:43;;;;;;;5.18;4.68;;;17.80;99.90;;;;;;5032155;28;20668;-58
2024/02/18 11:44:12;;;;;;;5.90;4.45;;;18.00;99.90;;;;;;5042025;28;20202;-59
2024/02/18 11:46:41;;;;;;;6.18;4.60;;;18.00;99.90;;;;;;5044164;28;20307;-58
2024/02/18 11:49:07;;;;;;;5.30;4.78;;;17.90;99.90;;;;;;5042663;28;20202;-61
2024/02/18 11:51:36;;;;;;;5.22;4.38;;;17.80;99.90;;;;;;5032205;28;20213;-62
2024/02/18 11:54:06;;;;;;;7.25;5.00;;;17.60;99.90;;;;;;5040487;28;20297;-60
2024/02/18 11:56:33;;;;;;;5.93;4.60;;;17.50;99.90;;;;;;5044235;28;20225;-60
2024/02/18 11:58:59;;;;;;;6.93;6.22;;;17.50;99.90;;;;;;5043845;28;20225;-60
2024/02/18 12:01:27;;;;;;;5.38;3.97;;;17.60;99.90;;;;;;5032406;28;20229;-61
2024/02/18 12:03:55;;;;;;;4.15;3.72;;;17.60;99.90;;;;;;5040212;28;20765;-60
2024/02/18 12:06:24;;;;;;;4.95;4.15;;;17.70;99.90;;;;;;5043396;28;20221;-61
2024/02/18 12:08:51;;;;;;;4.65;4.00;;;17.80;99.90;;;;;;5043759;28;20197;-63
2024/02/18 12:11:19;;;;;;;5.18;4.00;;;17.70;99.90;;;;;;5041018;28;20525;-62
2024/02/18 12:13:45;;;;;;;6.10;4.57;;;17.50;99.90;;;;;;5029686;28;20210;-58
2024/02/18 12:16:12;;;;;;;4.50;2.60;;;17.50;99.90;;;;;;5031716;28;20230;-60
2024/02/18 12:18:39;;;;;;;3.38;2.40;;;17.60;99.90;;;;;;5040466;28;20218;-60
2024/02/18 12:21:06;;;;;;;2.58;2.38;;;17.90;99.90;;;;;;5032112;28;20206;-61
2024/02/18 12:23:40;;;;;;;3.20;2.90;;;18.20;99.90;;;;;;5040068;28;20329;-61
2024/02/18 12:26:07;;;;;;;3.67;2.50;;;18.30;99.90;;;;;;5031707;28;20612;-61
2024/02/18 12:28:35;;;;;;;2.50;2.20;;;18.50;99.90;;;;;;5040257;28;20209;-61
2024/02/18 12:31:02;;;;;;;3.72;2.72;;;18.50;99.90;;;;;;5031851;28;20633;-61
2024/02/18 12:33:30;;;;;;;5.40;3.03;;;18.70;99.90;;;;;;5040458;28;20214;-61
2024/02/18 12:35:57;;;;;;;3.92;2.40;;;18.70;99.90;;;;;;5031605;28;20716;-62
2024/02/18 12:38:23;;;;;;;2.30;2.08;;;18.60;99.90;;;;;;5042964;28;20221;-61
2024/02/18 12:40:55;;;;;;;2.38;2.10;;;18.50;99.90;;;;;;5042736;28;20213;-61
2024/02/18 12:43:23;;;;;;;3.42;2.53;;;18.70;99.90;;;;;;5040461;28;20221;-61
2024/02/18 12:45:52;;;;;;;2.95;2.15;;;18.70;99.90;;;;;;5031541;28;20230;-60
2024/02/18 12:48:18;;;;;;;4.30;2.63;;;18.80;99.90;;;;;;5042005;28;20217;-61
2024/02/18 12:50:46;;;;;;;4.95;2.72;;;18.80;99.90;;;;;;5043005;28;20212;-61